Pagrindinis puslapis
METAR-TAF:

METAR-TAF

Oro uostai :

Diego Garsija, Indijos Vandenyno Britų Sritis

platuma: 07-18S, ilguma: 072-24E, Aukštis: 1 m

Dabartinis oras

Ataskaita buvo paskelbta 7 minutes, ne 17:55 UTC
Vėjas 8 kt iš Pietryčių
Temperatūra 27°C
Drėgmė 84%
Slėgis 1013 hPa
Matomumas 10 km arba daugiau
Mažai debesys ne aukštis 2000 ft
Išsisklaidę debesys ne aukštis 5000 ft
Su prošvaistėmis ne aukštis 8000 ft

METAR: FJDG 181755Z 13008KT 9999 FEW020 SCT050 BKN080 27/24 A2990 RMK SLP122 8/870 T02740239 10286 20273 403290252 50003

Laikas: 00:02 (18:02 UTC)

Prognozė

Ataskaita buvo paskelbta 1 valandą ir 2 minutes, ne 17:00 UTC
Prognozė galioja nuo 18 metu 17 UTC su 19 metu 23 UTC
Vėjas 6 kt nuo kintamojo kryptimis
Matomumas 10 km arba daugiau
Mažai debesys ne aukštis 2000 ft
Išsisklaidę debesys ne aukštis 10000 ft
Su prošvaistėmis ne aukštis 25000 ft

TAF: FJDG 181700Z 1817/1923 VRB06KT 9999 FEW020 SCT100 BKN250 QNH2984INS TX32/1906Z TN26/1817Z

Orai ataskaitas ir orų prognozės (METAR, TAF).

turimą stotys yra geltonos ir raudonos taškus žemėlapyje.

Perkelti pele per norėdami pamatyti stoties vardą.

Tada spustelėkite, norėdami matyti oro stebėjimo ir prognozės.

Norėdami pakeisti žemėlapį: spustelėkite ant žalios mygtukų su juodo kryžiaus žemyn,; žalią mygtuką su brūkšneliu, jei norite nutolinti; arba žalių rodyklių gretimoms žemėlapius.


METAR-TAF: